Terminal Aerodrome Forecast
Issued by NWS

Home | Current Version | Previous Version | Text Only | Print | Product List | Glossary On
Versions: 1 2 3 4 5 6 7 8 9 10 11 12 13 14 15 16 17 18 19 20 21 22 23 24 25 26 27 28 29
000
FTPA31 PHFO 042300
TAFJHM
TAF
PHJH 042331Z 0500/0524 04014G22KT P6SM FEW015 SCT040
     FM050600 05011KT P6SM SCT040 SCT070
     FM051800 05014G20KT P6SM VCSH SCT030 SCT050
      AMD NOT SKED AFT 050400=

USA.gov is the U.S. government's official web portal to all federal, state and local government web resources and services.